createdAt,value
2018-10-11T00:10:35.632Z,11.31
2018-10-11T00:31:15.624Z,11.17
2018-10-11T00:51:54.889Z,11.04
2018-10-11T01:12:43.630Z,10.91
2018-10-11T01:33:23.559Z,10.76
2018-10-11T01:54:04.975Z,10.67
2018-10-11T02:14:42.089Z,10.47
2018-10-11T02:35:24.430Z,10.42
2018-10-11T02:56:08.992Z,10.25
2018-10-11T03:16:50.947Z,10.22
2018-10-11T03:37:31.443Z,10.13
2018-10-11T03:58:06.410Z,9.96
2018-10-11T04:18:50.891Z,9.81
2018-10-11T04:39:31.401Z,9.83
2018-10-11T05:00:10.676Z,9.62
2018-10-11T05:20:49.617Z,9.47
2018-10-11T05:41:28.879Z,9.33
2018-10-11T06:02:05.077Z,9.22
2018-10-11T06:22:50.113Z,9.17
2018-10-11T06:43:32.822Z,9.23
2018-10-11T07:04:15.159Z,9.39
2018-10-11T07:24:52.277Z,9.89
2018-10-11T07:45:30.620Z,10.46
2018-10-11T08:06:12.962Z,10.90
2018-10-11T08:26:52.554Z,11.44
2018-10-11T08:47:32.744Z,11.95
2018-10-11T09:08:10.113Z,12.58
2018-10-11T09:28:52.452Z,12.95
2018-10-11T09:49:32.621Z,13.40
2018-10-11T10:10:13.468Z,14.00
2018-10-11T10:30:57.957Z,14.58
2018-10-11T10:51:37.226Z,15.10
2018-10-11T11:12:13.418Z,15.74
2018-10-11T11:32:57.908Z,16.27
2018-10-11T11:53:35.023Z,16.76
2018-10-11T12:14:12.720Z,17.10
2018-10-11T12:34:53.552Z,17.49
2018-10-11T12:55:32.817Z,18.00
2018-10-11T13:16:09.935Z,18.43
2018-10-11T13:36:45.204Z,18.75
2018-10-11T13:57:26.847Z,19.08
2018-10-11T14:18:09.284Z,19.12
2018-10-11T14:38:46.073Z,19.32
2018-10-11T14:59:29.069Z,20.33
2018-10-11T15:20:08.600Z,20.79
2018-10-11T15:40:49.108Z,20.53
2018-10-11T16:01:28.591Z,19.78
2018-10-11T16:22:08.548Z,19.13
2018-10-11T16:42:43.818Z,18.43
2018-10-11T17:03:23.084Z,17.71
2018-10-11T17:24:04.620Z,17.12
2018-10-11T17:44:44.058Z,16.60
2018-10-11T18:05:20.886Z,16.23
2018-10-11T18:25:57.086Z,15.77
2018-10-11T18:46:39.427Z,15.40
2018-10-11T19:07:20.833Z,15.04
2018-10-11T19:28:01.329Z,14.84
2018-10-11T19:48:43.983Z,14.64
2018-10-11T20:09:23.547Z,14.43
2018-10-11T20:30:05.114Z,14.16
2018-10-11T20:50:44.234Z,13.88
2018-10-11T21:11:23.663Z,13.69
2018-10-11T21:32:00.614Z,13.40
2018-10-11T21:52:39.941Z,13.17
2018-10-11T22:13:27.134Z,12.91
2018-10-11T22:34:05.477Z,12.72
2018-10-11T22:54:45.664Z,12.55
2018-10-11T23:15:26.412Z,12.51
2018-10-11T23:36:06.349Z,12.55
2018-10-11T23:56:47.762Z,12.57
